createdAt,value
2019-01-06T00:02:27.442Z,10.08
2019-01-06T00:07:36.374Z,11.29
2019-01-06T00:12:45.343Z,11.76
2019-01-06T00:17:54.275Z,11.88
2019-01-06T00:23:03.344Z,12.68
2019-01-06T00:28:12.242Z,13.62
2019-01-06T00:33:21.203Z,13.93
2019-01-06T00:38:30.130Z,13.74
2019-01-06T00:43:39.066Z,14.90
2019-01-06T00:48:48.056Z,14.43
2019-01-06T00:53:56.979Z,13.37
2019-01-06T00:59:05.936Z,15.05
2019-01-06T01:04:14.866Z,14.29
2019-01-06T01:09:23.847Z,14.36
2019-01-06T01:14:32.812Z,14.64
2019-01-06T01:19:41.882Z,18.84
2019-01-06T01:24:50.707Z,15.76
2019-01-06T01:29:59.645Z,15.06
2019-01-06T01:35:08.579Z,18.31
2019-01-06T01:40:17.588Z,15.64
2019-01-06T01:45:26.514Z,15.81
2019-01-06T01:50:35.459Z,15.41
2019-01-06T01:55:44.378Z,15.18
2019-01-06T02:00:53.354Z,14.57
2019-01-06T02:06:02.294Z,16.09
2019-01-06T02:11:11.282Z,14.91
2019-01-06T02:16:20.214Z,14.01
2019-01-06T02:21:29.226Z,15.64
2019-01-06T02:26:39.205Z,15.54
2019-01-06T02:31:48.167Z,14.30
2019-01-06T02:36:57.085Z,14.01
2019-01-06T02:42:06.063Z,12.99
2019-01-06T02:47:14.990Z,13.00
2019-01-06T02:52:23.944Z,13.28
2019-01-06T02:57:32.935Z,12.47
2019-01-06T03:02:41.869Z,11.89
2019-01-06T03:07:50.891Z,11.74
2019-01-06T03:12:59.811Z,11.37
2019-01-06T03:18:08.811Z,11.87
2019-01-06T03:23:17.731Z,13.93
2019-01-06T03:28:26.729Z,11.62
2019-01-06T03:33:35.677Z,12.15
2019-01-06T03:38:44.626Z,12.24
2019-01-06T03:43:53.551Z,12.77
2019-01-06T03:49:02.495Z,12.66
2019-01-06T03:54:11.469Z,13.83
2019-01-06T03:59:20.394Z,13.10
2019-01-06T04:04:29.351Z,13.26
2019-01-06T04:09:38.271Z,13.45
2019-01-06T04:14:47.236Z,14.68
2019-01-06T04:19:56.154Z,14.11
2019-01-06T04:25:05.120Z,15.66
2019-01-06T04:30:14.057Z,15.52
2019-01-06T04:35:23.074Z,15.61
2019-01-06T04:40:31.993Z,19.79
2019-01-06T04:45:41.018Z,17.38
2019-01-06T04:50:49.943Z,17.61
2019-01-06T04:55:58.962Z,19.30
2019-01-06T05:01:07.918Z,23.31
2019-01-06T05:06:16.855Z,20.74
2019-01-06T05:11:25.801Z,19.22
2019-01-06T05:16:34.762Z,18.15
2019-01-06T05:21:43.694Z,14.81
2019-01-06T05:26:52.723Z,15.71
2019-01-06T05:32:01.650Z,18.18
2019-01-06T05:37:10.658Z,14.12
2019-01-06T05:42:19.595Z,15.20
2019-01-06T05:47:28.613Z,15.68
2019-01-06T05:52:37.533Z,20.20
2019-01-06T05:57:46.534Z,16.18
2019-01-06T06:02:55.452Z,15.60
2019-01-06T06:08:04.433Z,20.71
2019-01-06T06:13:13.367Z,16.32
2019-01-06T06:18:22.310Z,16.36
2019-01-06T06:23:31.231Z,16.19
2019-01-06T06:28:40.206Z,20.11
2019-01-06T06:33:49.224Z,16.74
2019-01-06T06:38:58.230Z,20.97
2019-01-06T06:44:07.146Z,15.90
2019-01-06T06:49:16.114Z,15.98
2019-01-06T06:54:25.030Z,16.14
2019-01-06T06:59:33.997Z,14.37
2019-01-06T07:04:42.940Z,14.50
2019-01-06T07:09:51.886Z,14.29
2019-01-06T07:15:00.814Z,14.45
2019-01-06T07:20:09.758Z,14.31
2019-01-06T07:25:18.711Z,14.05
2019-01-06T07:30:27.664Z,14.31
2019-01-06T07:35:36.595Z,13.85
2019-01-06T07:40:45.545Z,14.54
2019-01-06T07:45:54.456Z,14.07
2019-01-06T07:51:03.448Z,13.93
2019-01-06T07:56:12.370Z,13.51
2019-01-06T08:01:21.330Z,14.18
2019-01-06T08:06:30.282Z,14.11
2019-01-06T08:11:39.276Z,14.25
2019-01-06T08:16:48.192Z,13.77
2019-01-06T08:21:57.218Z,13.55
2019-01-06T08:27:06.139Z,13.18
2019-01-06T08:32:15.162Z,13.49
2019-01-06T08:37:24.114Z,11.88
2019-01-06T08:42:33.106Z,11.41
2019-01-06T08:47:42.042Z,11.98
2019-01-06T08:52:51.064Z,10.38
2019-01-06T08:57:59.990Z,8.90
2019-01-06T09:03:09.006Z,8.84
2019-01-06T09:08:17.931Z,8.38
2019-01-06T09:13:27.034Z,7.98
2019-01-06T09:18:35.959Z,7.55
2019-01-06T09:23:46.519Z,9.33
2019-01-06T09:28:53.427Z,7.14
2019-01-06T09:34:02.458Z,9.12
2019-01-06T09:39:11.362Z,6.79
2019-01-06T09:44:20.340Z,7.39
2019-01-06T09:49:29.350Z,8.25
2019-01-06T09:54:38.302Z,9.64
2019-01-06T09:59:47.230Z,9.09
2019-01-06T10:04:56.182Z,9.69
2019-01-06T10:10:05.127Z,11.27
2019-01-06T10:15:14.167Z,11.43
2019-01-06T10:20:23.103Z,11.23
2019-01-06T10:25:32.067Z,11.78
2019-01-06T10:30:40.991Z,11.37
2019-01-06T10:35:49.954Z,11.12
2019-01-06T10:40:58.890Z,11.07
2019-01-06T10:46:07.846Z,11.22
2019-01-06T10:51:16.790Z,11.51
2019-01-06T10:56:25.750Z,10.85
2019-01-06T11:01:34.679Z,9.74
2019-01-06T11:06:43.619Z,10.73
2019-01-06T11:11:52.563Z,9.73
2019-01-06T11:17:01.602Z,9.04
2019-01-06T11:22:10.534Z,9.60
2019-01-06T11:27:19.530Z,10.33
2019-01-06T11:32:28.450Z,11.43
2019-01-06T11:37:37.454Z,10.73
2019-01-06T11:42:46.378Z,10.56
2019-01-06T11:47:55.351Z,10.38
2019-01-06T11:53:04.294Z,11.49
2019-01-06T11:58:13.254Z,10.72
2019-01-06T12:03:22.186Z,11.13
2019-01-06T12:08:31.219Z,10.43
2019-01-06T12:13:40.164Z,11.67
2019-01-06T12:18:50.518Z,10.23
2019-01-06T12:23:57.655Z,9.37
2019-01-06T12:29:06.654Z,10.07
2019-01-06T12:34:15.570Z,10.33
2019-01-06T12:39:24.670Z,9.92
2019-01-06T12:44:33.598Z,9.38
2019-01-06T12:49:42.607Z,9.08
2019-01-06T12:54:51.554Z,9.70
2019-01-06T13:00:00.567Z,9.68
2019-01-06T13:05:09.503Z,9.01
2019-01-06T13:10:18.528Z,10.68
2019-01-06T13:15:27.474Z,8.31
2019-01-06T13:20:36.503Z,8.28
2019-01-06T13:25:45.458Z,9.07
2019-01-06T13:30:54.493Z,8.17
2019-01-06T13:36:03.446Z,8.54
2019-01-06T13:41:12.403Z,9.77
2019-01-06T13:46:21.347Z,8.78
2019-01-06T13:51:30.355Z,9.61
2019-01-06T13:56:39.290Z,9.97
2019-01-06T14:01:48.303Z,10.65
2019-01-06T14:06:57.271Z,10.20
2019-01-06T14:12:09.535Z,11.97
2019-01-06T14:17:08.470Z,10.51
2019-01-06T14:22:17.494Z,10.85
2019-01-06T14:27:26.439Z,10.76
2019-01-06T14:32:35.409Z,10.54
2019-01-06T14:37:44.346Z,11.59
2019-01-06T14:42:53.306Z,10.63
2019-01-06T14:48:02.238Z,11.25
2019-01-06T14:53:11.202Z,10.96
2019-01-06T14:58:20.122Z,12.49
2019-01-06T15:03:29.111Z,12.19
2019-01-06T15:08:38.046Z,12.64
2019-01-06T15:13:47.052Z,13.63
2019-01-06T15:18:55.962Z,12.80
2019-01-06T15:24:04.919Z,13.45
2019-01-06T15:29:13.847Z,13.95
2019-01-06T15:34:22.882Z,14.58
2019-01-06T15:39:31.807Z,14.14
2019-01-06T15:44:40.793Z,17.17
2019-01-06T15:49:49.835Z,17.09
2019-01-06T15:54:58.739Z,17.48
2019-01-06T16:00:08.316Z,18.30
2019-01-06T16:05:17.247Z,19.90
2019-01-06T16:10:26.206Z,20.04
2019-01-06T16:15:36.750Z,20.42
2019-01-06T16:20:35.678Z,20.59
2019-01-06T16:25:44.702Z,18.75
2019-01-06T16:30:53.627Z,19.35
2019-01-06T16:36:02.582Z,20.27
2019-01-06T16:41:11.691Z,22.01
2019-01-06T16:46:20.736Z,21.92
2019-01-06T16:51:29.683Z,22.36
2019-01-06T16:56:38.679Z,22.54
2019-01-06T17:01:47.600Z,22.77
2019-01-06T17:06:56.558Z,23.44
2019-01-06T17:12:05.486Z,24.99
2019-01-06T17:17:14.466Z,25.08
2019-01-06T17:22:23.373Z,24.64
2019-01-06T17:27:32.335Z,23.82
2019-01-06T17:32:41.275Z,24.45
2019-01-06T17:37:50.262Z,25.14
2019-01-06T17:42:59.186Z,28.26
2019-01-06T17:48:08.171Z,25.12
2019-01-06T17:53:17.090Z,25.06
2019-01-06T17:58:26.101Z,24.87
2019-01-06T18:03:35.037Z,25.29
2019-01-06T18:08:44.066Z,25.42
2019-01-06T18:13:52.990Z,25.21
2019-01-06T18:19:02.057Z,28.33
2019-01-06T18:24:10.962Z,27.49
2019-01-06T18:29:20.006Z,25.03
2019-01-06T18:34:28.935Z,28.09
2019-01-06T18:39:37.980Z,26.86
2019-01-06T18:44:46.907Z,27.77
2019-01-06T18:49:55.871Z,28.34
2019-01-06T18:55:04.798Z,28.89
2019-01-06T19:00:13.753Z,30.71
2019-01-06T19:05:22.694Z,29.30
2019-01-06T19:10:31.648Z,28.89
2019-01-06T19:15:40.558Z,29.76
2019-01-06T19:20:49.535Z,28.83
2019-01-06T19:25:58.462Z,29.30
2019-01-06T19:31:07.486Z,29.32
2019-01-06T19:36:16.430Z,29.43
2019-01-06T19:41:25.378Z,29.63
2019-01-06T19:46:34.446Z,28.93
2019-01-06T19:51:43.375Z,30.02
2019-01-06T19:56:52.390Z,28.89
2019-01-06T20:02:01.318Z,37.31
2019-01-06T20:07:10.386Z,34.69
2019-01-06T20:12:19.311Z,40.58
2019-01-06T20:17:28.267Z,36.19
2019-01-06T20:22:37.191Z,39.51
2019-01-06T20:27:46.119Z,35.26
2019-01-06T20:32:55.053Z,34.30
2019-01-06T20:38:03.983Z,34.21
2019-01-06T20:43:12.930Z,33.18
2019-01-06T20:48:21.966Z,33.27
2019-01-06T20:53:30.907Z,32.56
2019-01-06T20:58:39.883Z,33.14
2019-01-06T21:03:48.810Z,32.46
2019-01-06T21:08:57.790Z,32.38
2019-01-06T21:14:07.756Z,31.12
2019-01-06T21:19:16.735Z,30.39
2019-01-06T21:24:25.658Z,34.96
2019-01-06T21:29:34.631Z,31.24
2019-01-06T21:34:43.566Z,29.21
2019-01-06T21:39:52.542Z,35.51
2019-01-06T21:45:01.483Z,31.72
2019-01-06T21:50:10.607Z,30.95
2019-01-06T21:55:19.544Z,30.54
2019-01-06T22:00:28.502Z,30.31
2019-01-06T22:05:37.426Z,29.81
2019-01-06T22:10:46.362Z,29.93
2019-01-06T22:15:55.330Z,28.43
2019-01-06T22:21:04.258Z,33.68
2019-01-06T22:26:13.186Z,29.86
2019-01-06T22:31:25.474Z,29.62
2019-01-06T22:36:30.602Z,35.41
2019-01-06T22:41:39.514Z,30.56
2019-01-06T22:46:48.511Z,29.90
2019-01-06T22:51:57.465Z,29.58
2019-01-06T22:57:06.424Z,31.43
2019-01-06T23:02:15.347Z,31.72
2019-01-06T23:07:24.312Z,31.59
2019-01-06T23:12:33.272Z,31.40
2019-01-06T23:17:42.190Z,32.18
2019-01-06T23:22:51.116Z,31.02
2019-01-06T23:28:00.124Z,32.38
2019-01-06T23:33:10.878Z,31.61
2019-01-06T23:38:17.595Z,38.43
2019-01-06T23:43:26.519Z,32.37
2019-01-06T23:48:35.538Z,33.13
2019-01-06T23:53:44.458Z,32.50
2019-01-06T23:58:53.406Z,39.19
